Time;durP1;ratioP1;P1;durP2;ratioP2;P2;SDS_P1;SDS_P2;PMS_P1;PMS_P2;Temp;Humidity;BMP_temperature;BMP_pressure;BME280_temperature;BME280_humidity;BME280_pressure;Samples;Min_cycle;Max_cycle;Signal;HPM_P1;HPM_P2
2021/12/27 00:01:26;;;;;;;10.63;7.40;;;;;;;;;;6154877;28;20608;-64
2021/12/27 00:04:47;;;;;;;9.93;6.77;;;;;;;;;;6158344;28;20625;-64
2021/12/27 00:08:09;;;;;;;11.13;8.07;;;;;;;;;;6158155;28;20732;-65
2021/12/27 00:11:30;;;;;;;12.30;8.43;;;;;;;;;;6153324;28;20605;-64
2021/12/27 00:14:51;;;;;;;9.00;7.77;;;;;;;;;;6154764;28;20238;-64
2021/12/27 00:18:11;;;;;;;10.70;8.07;;;;;;;;;;6154408;28;20231;-65
2021/12/27 00:21:32;;;;;;;12.87;9.40;;;;;;;;;;6155031;28;20227;-64
2021/12/27 00:24:55;;;;;;;10.07;7.23;;;;;;;;;;6157102;28;20270;-65
2021/12/27 00:28:16;;;;;;;9.83;7.80;;;;;;;;;;6153742;28;20243;-63
2021/12/27 00:31:36;;;;;;;11.70;8.70;;;;;;;;;;6165964;28;20257;-65
2021/12/27 00:34:57;;;;;;;11.63;8.13;;;;;;;;;;6155033;28;20241;-62
2021/12/27 00:38:18;;;;;;;12.30;8.13;;;;;;;;;;6154241;28;20645;-63
2021/12/27 00:41:40;;;;;;;12.20;9.17;;;;;;;;;;6155689;28;20325;-65
2021/12/27 00:45:01;;;;;;;11.67;8.80;;;;;;;;;;6158170;28;20235;-64
2021/12/27 00:48:22;;;;;;;11.80;9.00;;;;;;;;;;6153580;28;20238;-64
2021/12/27 00:51:43;;;;;;;13.40;9.77;;;;;;;;;;6152686;28;20231;-64
2021/12/27 00:55:05;;;;;;;13.40;8.87;;;;;;;;;;6158774;28;20235;-64
2021/12/27 00:58:27;;;;;;;14.90;9.33;;;;;;;;;;6155324;28;20246;-65
2021/12/27 01:01:48;;;;;;;15.20;9.20;;;;;;;;;;6151003;28;20363;-64
2021/12/27 01:05:09;;;;;;;13.70;8.83;;;;;;;;;;6152098;28;20254;-65
2021/12/27 01:08:30;;;;;;;13.87;9.57;;;;;;;;;;6157717;28;20271;-64
2021/12/27 01:12:10;;;;;;;16.07;10.33;;;;;;;;;;6156984;28;20227;-64
2021/12/27 01:15:48;;;;;;;16.20;10.13;;;;;;;;;;6151686;28;20255;-66
2021/12/27 01:19:09;;;;;;;11.37;8.67;;;;;;;;;;6154544;28;20630;-64
2021/12/27 01:22:30;;;;;;;13.47;10.60;;;;;;;;;;6152637;28;20231;-64
2021/12/27 01:25:51;;;;;;;16.83;10.67;;;;;;;;;;6158722;28;20238;-65
2021/12/27 01:29:12;;;;;;;14.13;9.50;;;;;;;;;;6154946;28;21209;-64
2021/12/27 01:32:39;;;;;;;11.87;9.43;;;;;;;;;;6151239;28;20322;-64
2021/12/27 01:36:02;;;;;;;16.67;11.27;;;;;;;;;;6152417;28;20231;-64
2021/12/27 01:39:23;;;;;;;15.97;11.00;;;;;;;;;;6155120;28;20218;-65
2021/12/27 01:43:05;;;;;;;15.40;10.70;;;;;;;;;;6156794;28;20320;-65
2021/12/27 01:46:28;;;;;;;15.80;9.53;;;;;;;;;;6151488;28;20234;-65
2021/12/27 01:49:51;;;;;;;18.80;11.83;;;;;;;;;;6150259;28;20298;-65
2021/12/27 01:53:12;;;;;;;17.40;9.83;;;;;;;;;;6158623;28;20255;-63
2021/12/27 01:56:33;;;;;;;16.50;11.00;;;;;;;;;;6157212;28;20313;-64
2021/12/27 01:59:54;;;;;;;18.53;11.37;;;;;;;;;;6155724;28;20242;-64
2021/12/27 02:03:15;;;;;;;14.77;12.00;;;;;;;;;;6152820;28;20231;-64
2021/12/27 02:06:37;;;;;;;19.80;11.00;;;;;;;;;;6151570;28;20238;-64
2021/12/27 02:10:02;;;;;;;15.43;11.67;;;;;;;;;;6152204;28;20235;-65
2021/12/27 02:13:24;;;;;;;13.97;10.60;;;;;;;;;;6154393;28;20238;-63
2021/12/27 02:16:45;;;;;;;18.10;11.23;;;;;;;;;;6152983;28;20258;-63
2021/12/27 02:20:09;;;;;;;16.77;11.17;;;;;;;;;;6153980;28;20231;-65
2021/12/27 02:23:30;;;;;;;18.87;12.13;;;;;;;;;;6149580;28;20754;-64
2021/12/27 02:26:51;;;;;;;16.50;12.27;;;;;;;;;;6155527;28;20222;-64
2021/12/27 02:30:14;;;;;;;14.80;11.43;;;;;;;;;;6152434;28;20226;-64
2021/12/27 02:33:36;;;;;;;20.47;12.07;;;;;;;;;;6157929;28;20243;-63
2021/12/27 02:36:58;;;;;;;18.43;11.73;;;;;;;;;;6162166;28;20230;-64
2021/12/27 02:40:23;;;;;;;18.20;12.77;;;;;;;;;;6160644;28;20305;-64
2021/12/27 02:43:44;;;;;;;22.47;15.27;;;;;;;;;;6152539;28;20235;-64
2021/12/27 02:47:05;;;;;;;17.90;12.90;;;;;;;;;;6157634;28;20223;-63
2021/12/27 02:50:27;;;;;;;18.53;13.20;;;;;;;;;;6155342;28;20692;-64
2021/12/27 02:53:50;;;;;;;17.50;11.93;;;;;;;;;;6155797;28;20628;-64
2021/12/27 02:57:10;;;;;;;20.47;12.33;;;;;;;;;;6158084;28;20243;-65
2021/12/27 03:00:34;;;;;;;17.70;13.77;;;;;;;;;;6156906;28;20238;-65
2021/12/27 03:03:55;;;;;;;15.60;11.60;;;;;;;;;;6163583;28;20231;-64
2021/12/27 03:07:16;;;;;;;16.33;13.43;;;;;;;;;;6162120;28;20234;-65
2021/12/27 03:10:38;;;;;;;17.30;12.00;;;;;;;;;;6158765;28;20230;-63
2021/12/27 03:13:59;;;;;;;20.83;12.83;;;;;;;;;;6155588;28;20230;-64
2021/12/27 03:17:20;;;;;;;17.03;12.57;;;;;;;;;;6156345;28;20254;-64
2021/12/27 03:20:41;;;;;;;18.03;12.73;;;;;;;;;;6158528;28;20673;-63
2021/12/27 03:24:02;;;;;;;18.13;12.60;;;;;;;;;;6161786;28;20250;-64
2021/12/27 03:27:24;;;;;;;20.07;13.73;;;;;;;;;;6158688;28;20235;-63
2021/12/27 03:30:45;;;;;;;14.80;11.60;;;;;;;;;;6156765;28;20516;-65
2021/12/27 03:34:05;;;;;;;19.87;14.10;;;;;;;;;;6149713;28;20294;-66
2021/12/27 03:37:26;;;;;;;27.10;14.33;;;;;;;;;;6154318;28;20243;-64
2021/12/27 03:40:48;;;;;;;21.47;12.50;;;;;;;;;;6157084;28;20222;-63
2021/12/27 03:44:10;;;;;;;19.73;14.33;;;;;;;;;;6160696;28;20227;-64
2021/12/27 03:47:31;;;;;;;21.97;13.83;;;;;;;;;;6159070;28;20518;-64
2021/12/27 03:50:53;;;;;;;20.03;14.00;;;;;;;;;;6158321;28;20230;-64
2021/12/27 03:54:14;;;;;;;20.17;12.17;;;;;;;;;;6161451;28;20234;-64
2021/12/27 03:57:38;;;;;;;20.13;13.00;;;;;;;;;;6154165;28;20239;-65
2021/12/27 04:01:13;;;;;;;24.07;14.53;;;;;;;;;;6154446;28;20356;-64
2021/12/27 04:04:34;;;;;;;20.13;12.63;;;;;;;;;;6152642;28;20223;-65
2021/12/27 04:08:00;;;;;;;18.70;13.43;;;;;;;;;;6154471;28;20230;-64
2021/12/27 04:11:21;;;;;;;21.00;14.67;;;;;;;;;;6155260;28;20238;-65
2021/12/27 04:14:41;;;;;;;21.83;13.70;;;;;;;;;;6162229;28;20640;-65
2021/12/27 04:18:05;;;;;;;30.53;15.80;;;;;;;;;;6161305;28;20222;-65
2021/12/27 04:21:26;;;;;;;22.20;14.80;;;;;;;;;;6157031;28;20492;-64
2021/12/27 04:24:47;;;;;;;21.33;13.73;;;;;;;;;;6160523;28;20250;-63
2021/12/27 04:28:08;;;;;;;20.93;13.80;;;;;;;;;;6159629;28;20231;-64
2021/12/27 04:31:29;;;;;;;22.57;15.43;;;;;;;;;;6153359;28;20260;-64
2021/12/27 04:34:52;;;;;;;18.60;13.67;;;;;;;;;;6158806;28;20230;-64
2021/12/27 04:38:13;;;;;;;20.53;14.13;;;;;;;;;;6156277;28;20231;-65
2021/12/27 04:41:34;;;;;;;23.00;16.57;;;;;;;;;;6158847;28;20230;-64
2021/12/27 04:44:55;;;;;;;20.37;15.03;;;;;;;;;;6159196;28;20313;-65
2021/12/27 04:48:16;;;;;;;22.20;16.70;;;;;;;;;;6154976;28;20260;-65
2021/12/27 04:51:38;;;;;;;22.03;15.40;;;;;;;;;;6152496;28;20242;-65
2021/12/27 04:54:59;;;;;;;18.73;13.63;;;;;;;;;;6158107;28;20226;-64
2021/12/27 04:58:22;;;;;;;21.50;14.27;;;;;;;;;;6152963;28;20262;-63
2021/12/27 05:01:44;;;;;;;24.47;15.33;;;;;;;;;;6149560;28;20283;-64
2021/12/27 05:05:06;;;;;;;22.57;15.50;;;;;;;;;;6145521;28;20342;-64
2021/12/27 05:08:28;;;;;;;24.50;15.00;;;;;;;;;;6150527;28;20262;-65
2021/12/27 05:11:49;;;;;;;18.87;14.37;;;;;;;;;;6157662;28;20239;-65
2021/12/27 05:15:10;;;;;;;26.70;16.00;;;;;;;;;;6158999;28;20322;-64
2021/12/27 05:18:31;;;;;;;26.93;18.33;;;;;;;;;;6158494;28;20246;-65
2021/12/27 05:21:51;;;;;;;21.37;14.77;;;;;;;;;;6153102;28;20223;-64
2021/12/27 05:25:16;;;;;;;25.07;15.80;;;;;;;;;;6153366;28;20234;-64
2021/12/27 05:28:36;;;;;;;23.13;15.80;;;;;;;;;;6150766;28;20620;-64
2021/12/27 05:32:01;;;;;;;24.20;15.83;;;;;;;;;;6154739;28;20227;-64
2021/12/27 05:35:22;;;;;;;22.47;14.57;;;;;;;;;;6154644;28;20219;-62
2021/12/27 05:38:43;;;;;;;21.73;16.93;;;;;;;;;;6153468;28;20230;-65
2021/12/27 05:42:07;;;;;;;24.40;14.73;;;;;;;;;;6154601;28;20230;-64
2021/12/27 05:45:27;;;;;;;22.23;14.87;;;;;;;;;;6152832;28;20239;-64
2021/12/27 05:48:48;;;;;;;24.43;15.87;;;;;;;;;;6152533;28;20238;-63
2021/12/27 05:52:10;;;;;;;24.80;14.83;;;;;;;;;;6155008;28;20238;-64
2021/12/27 05:55:31;;;;;;;20.63;14.73;;;;;;;;;;6154851;28;20238;-64
2021/12/27 05:58:53;;;;;;;24.67;16.63;;;;;;;;;;6154850;28;20242;-65
2021/12/27 06:02:14;;;;;;;25.40;16.67;;;;;;;;;;6152305;28;20230;-65
2021/12/27 06:05:35;;;;;;;22.33;15.00;;;;;;;;;;6152582;28;20946;-64
2021/12/27 06:08:56;;;;;;;28.07;17.40;;;;;;;;;;6151046;28;20266;-65
2021/12/27 06:12:16;;;;;;;24.23;16.43;;;;;;;;;;6153251;28;20230;-63
2021/12/27 06:15:39;;;;;;;22.13;15.27;;;;;;;;;;6159358;28;20709;-65
2021/12/27 06:18:59;;;;;;;25.00;16.80;;;;;;;;;;6150353;28;20321;-64
2021/12/27 06:22:20;;;;;;;27.60;17.47;;;;;;;;;;6154738;28;20226;-64
2021/12/27 06:25:43;;;;;;;20.57;15.27;;;;;;;;;;6154124;28;20231;-63
2021/12/27 06:29:04;;;;;;;26.40;16.23;;;;;;;;;;6150310;28;20226;-64
2021/12/27 06:32:26;;;;;;;23.63;17.03;;;;;;;;;;6150903;28;20339;-64
2021/12/27 06:35:47;;;;;;;25.13;17.23;;;;;;;;;;6155533;28;20623;-64
2021/12/27 06:39:09;;;;;;;25.20;16.33;;;;;;;;;;6152962;28;20223;-64
2021/12/27 06:42:29;;;;;;;24.33;15.00;;;;;;;;;;6156030;28;20515;-64
2021/12/27 06:45:50;;;;;;;21.93;15.80;;;;;;;;;;6154596;28;20230;-62
2021/12/27 06:49:14;;;;;;;24.63;18.37;;;;;;;;;;6151544;28;20238;-64
2021/12/27 06:52:35;;;;;;;25.13;15.93;;;;;;;;;;6149651;28;20238;-63
2021/12/27 06:55:56;;;;;;;25.73;16.60;;;;;;;;;;6132545;28;20239;-64
2021/12/27 06:59:16;;;;;;;25.60;18.00;;;;;;;;;;6148058;28;20230;-61
2021/12/27 07:02:37;;;;;;;26.30;17.60;;;;;;;;;;6141215;28;20321;-64
2021/12/27 07:06:00;;;;;;;22.53;15.73;;;;;;;;;;6148596;28;20238;-65
2021/12/27 07:09:21;;;;;;;26.50;16.63;;;;;;;;;;6149371;28;20238;-65
2021/12/27 07:12:42;;;;;;;27.07;16.57;;;;;;;;;;6153330;28;20326;-64
2021/12/27 07:16:05;;;;;;;24.80;16.13;;;;;;;;;;6150313;28;20612;-66
2021/12/27 07:19:27;;;;;;;27.60;17.07;;;;;;;;;;6158484;28;20215;-65
2021/12/27 07:22:50;;;;;;;22.00;15.63;;;;;;;;;;6154446;28;20269;-65
2021/12/27 07:26:11;;;;;;;27.70;17.83;;;;;;;;;;6151300;28;20234;-67
2021/12/27 07:29:31;;;;;;;24.20;17.13;;;;;;;;;;6158018;28;20242;-65
2021/12/27 07:32:52;;;;;;;24.17;18.00;;;;;;;;;;6157264;28;20222;-65
2021/12/27 07:36:13;;;;;;;25.50;17.43;;;;;;;;;;6150101;28;20322;-64
2021/12/27 07:39:35;;;;;;;20.37;16.67;;;;;;;;;;6152154;28;20234;-65
2021/12/27 07:42:57;;;;;;;25.23;17.50;;;;;;;;;;6155426;28;20231;-66
2021/12/27 07:46:18;;;;;;;25.07;17.80;;;;;;;;;;6158439;28;20230;-65
2021/12/27 07:49:39;;;;;;;25.47;17.40;;;;;;;;;;6155531;28;20226;-65
2021/12/27 07:53:01;;;;;;;31.57;18.87;;;;;;;;;;6151401;28;20660;-66
2021/12/27 07:56:23;;;;;;;26.90;18.30;;;;;;;;;;6152463;28;20231;-64
2021/12/27 07:59:47;;;;;;;25.37;19.17;;;;;;;;;;6155840;28;20227;-65
2021/12/27 08:03:08;;;;;;;27.03;20.03;;;;;;;;;;6141028;28;20239;-65
2021/12/27 08:06:29;;;;;;;25.43;17.70;;;;;;;;;;6149367;28;20234;-64
2021/12/27 08:09:50;;;;;;;26.43;18.10;;;;;;;;;;6148114;28;20243;-66
2021/12/27 08:13:12;;;;;;;26.20;18.90;;;;;;;;;;6151587;28;20238;-66
2021/12/27 08:16:33;;;;;;;24.77;17.50;;;;;;;;;;6143675;28;20238;-64
2021/12/27 08:19:54;;;;;;;25.60;20.23;;;;;;;;;;6149578;28;20361;-65
2021/12/27 08:23:15;;;;;;;27.43;19.27;;;;;;;;;;6152355;28;20319;-66
2021/12/27 08:26:37;;;;;;;25.67;18.93;;;;;;;;;;6153016;28;20227;-65
2021/12/27 08:30:04;;;;;;;27.00;19.87;;;;;;;;;;6149005;28;21402;-66
2021/12/27 08:33:25;;;;;;;25.77;18.27;;;;;;;;;;6150739;28;20231;-66
2021/12/27 08:36:46;;;;;;;31.43;20.23;;;;;;;;;;6147991;28;20239;-66
2021/12/27 08:40:08;;;;;;;31.10;19.73;;;;;;;;;;6139775;28;20329;-66
2021/12/27 08:43:29;;;;;;;32.57;22.17;;;;;;;;;;6146984;28;20239;-65
2021/12/27 08:46:52;;;;;;;32.80;20.23;;;;;;;;;;6157325;28;20234;-64
2021/12/27 08:50:13;;;;;;;28.57;18.97;;;;;;;;;;6151965;28;20597;-65
2021/12/27 08:53:34;;;;;;;27.73;20.63;;;;;;;;;;6142789;28;20508;-67
2021/12/27 08:56:55;;;;;;;31.97;19.87;;;;;;;;;;6141443;28;20246;-63
2021/12/27 09:00:17;;;;;;;32.30;21.33;;;;;;;;;;6146881;28;20231;-63
2021/12/27 09:03:39;;;;;;;28.13;19.50;;;;;;;;;;6133203;28;20548;-66
2021/12/27 09:07:00;;;;;;;33.97;22.27;;;;;;;;;;6145699;28;20563;-64
2021/12/27 09:10:21;;;;;;;33.70;22.03;;;;;;;;;;6151000;28;20239;-65
2021/12/27 09:13:42;;;;;;;31.33;20.53;;;;;;;;;;6150486;28;20238;-66
2021/12/27 09:17:04;;;;;;;29.63;22.07;;;;;;;;;;6148014;28;20222;-63
2021/12/27 09:20:28;;;;;;;32.90;21.57;;;;;;;;;;6152482;28;20234;-64
2021/12/27 09:23:48;;;;;;;35.07;23.23;;;;;;;;;;6153144;28;20616;-66
2021/12/27 09:27:09;;;;;;;28.87;20.63;;;;;;;;;;6149434;28;20238;-65
2021/12/27 09:30:30;;;;;;;27.27;19.83;;;;;;;;;;6144728;28;20226;-64
2021/12/27 09:33:51;;;;;;;27.63;20.93;;;;;;;;;;6150227;28;20532;-65
2021/12/27 09:37:13;;;;;;;28.67;20.90;;;;;;;;;;6154847;28;20230;-63
2021/12/27 09:40:35;;;;;;;31.77;24.67;;;;;;;;;;6149239;28;20601;-64
2021/12/27 09:43:56;;;;;;;29.93;21.27;;;;;;;;;;6149846;28;20230;-64
2021/12/27 09:47:16;;;;;;;33.90;21.00;;;;;;;;;;6145912;28;20250;-62
2021/12/27 09:50:39;;;;;;;29.30;22.03;;;;;;;;;;6148343;28;20222;-67
2021/12/27 09:54:01;;;;;;;30.30;20.53;;;;;;;;;;6149556;28;20321;-67
2021/12/27 09:57:22;;;;;;;38.00;25.13;;;;;;;;;;6145284;28;20699;-66
2021/12/27 10:00:43;;;;;;;31.07;21.60;;;;;;;;;;6143619;28;20239;-66
2021/12/27 10:04:05;;;;;;;35.87;22.90;;;;;;;;;;6149387;28;20321;-64
2021/12/27 10:07:27;;;;;;;30.03;20.97;;;;;;;;;;6151221;28;20238;-64
2021/12/27 10:10:49;;;;;;;31.57;21.37;;;;;;;;;;6148945;28;20608;-66
2021/12/27 10:14:12;;;;;;;33.53;22.97;;;;;;;;;;6149781;28;20230;-66
2021/12/27 10:17:35;;;;;;;33.80;21.33;;;;;;;;;;6146099;28;20234;-65
2021/12/27 10:20:59;;;;;;;34.40;23.17;;;;;;;;;;6147087;28;20230;-66
2021/12/27 10:24:27;;;;;;;35.67;23.50;;;;;;;;;;6148069;28;21475;-67
2021/12/27 10:27:53;;;;;;;32.70;23.57;;;;;;;;;;6141297;28;20234;-66
2021/12/27 10:31:14;;;;;;;30.53;22.43;;;;;;;;;;6143628;28;20231;-66
2021/12/27 10:34:36;;;;;;;35.13;24.70;;;;;;;;;;6137958;28;20230;-66
2021/12/27 10:38:12;;;;;;;36.03;22.03;;;;;;;;;;6152238;28;20605;-67
2021/12/27 10:41:36;;;;;;;30.33;23.90;;;;;;;;;;6150391;28;20516;-67
2021/12/27 10:45:00;;;;;;;34.63;24.37;;;;;;;;;;6150581;28;20278;-67
2021/12/27 10:48:22;;;;;;;32.30;23.20;;;;;;;;;;6148585;28;20795;-65
2021/12/27 10:51:48;;;;;;;31.80;23.03;;;;;;;;;;6152902;28;20258;-67
2021/12/27 10:55:09;;;;;;;35.73;24.87;;;;;;;;;;6152491;28;20663;-66
2021/12/27 10:58:31;;;;;;;31.90;21.90;;;;;;;;;;6156449;28;20234;-67
2021/12/27 11:01:53;;;;;;;32.90;23.47;;;;;;;;;;6150797;28;20652;-66
2021/12/27 11:05:14;;;;;;;29.27;21.70;;;;;;;;;;6155299;28;20304;-66
2021/12/27 11:08:38;;;;;;;35.83;25.20;;;;;;;;;;6155430;28;20530;-65
2021/12/27 11:12:00;;;;;;;35.23;25.87;;;;;;;;;;6152520;28;20457;-65
2021/12/27 11:15:21;;;;;;;35.17;25.30;;;;;;;;;;6146619;28;20410;-64
2021/12/27 11:18:44;;;;;;;30.97;22.83;;;;;;;;;;6153162;28;20274;-67
2021/12/27 11:22:05;;;;;;;32.80;23.67;;;;;;;;;;6152217;28;20275;-65
2021/12/27 11:25:31;;;;;;;36.80;27.13;;;;;;;;;;6148745;28;20349;-66
2021/12/27 11:28:52;;;;;;;35.97;23.70;;;;;;;;;;6151536;28;20243;-66
2021/12/27 11:32:16;;;;;;;38.47;24.87;;;;;;;;;;6149480;28;20439;-65
2021/12/27 11:35:41;;;;;;;38.40;24.50;;;;;;;;;;6145268;28;20569;-66
2021/12/27 11:39:18;;;;;;;34.93;26.80;;;;;;;;;;6153016;28;20405;-66
2021/12/27 11:42:55;;;;;;;36.13;24.83;;;;;;;;;;6148952;28;20231;-66
2021/12/27 11:46:16;;;;;;;35.80;25.27;;;;;;;;;;6148024;28;20258;-65
2021/12/27 11:49:59;;;;;;;34.17;24.90;;;;;;;;;;6157755;28;20322;-64
2021/12/27 11:53:28;;;;;;;33.60;28.63;;;;;;;;;;6148928;28;20759;-65
2021/12/27 11:56:49;;;;;;;34.60;30.17;;;;;;;;;;6149600;28;20728;-66
2021/12/27 12:00:36;;;;;;;34.73;27.00;;;;;;;;;;6156109;28;20662;-65
2021/12/27 12:04:00;;;;;;;36.30;25.07;;;;;;;;;;6126274;28;20250;-65
2021/12/27 12:07:50;;;;;;;39.17;25.63;;;;;;;;;;6158735;28;20333;-65
2021/12/27 12:11:13;;;;;;;34.23;25.17;;;;;;;;;;6154815;28;20633;-65
2021/12/27 12:14:34;;;;;;;37.93;25.70;;;;;;;;;;6152750;28;20605;-67
2021/12/27 12:17:55;;;;;;;33.23;24.20;;;;;;;;;;6150890;28;20231;-66
2021/12/27 12:21:48;;;;;;;33.97;24.43;;;;;;;;;;6149171;28;20234;-64
2021/12/27 12:25:14;;;;;;;41.43;25.90;;;;;;;;;;6068463;28;20427;-65
2021/12/27 12:28:36;;;;;;;35.63;25.40;;;;;;;;;;6149733;28;20310;-64
2021/12/27 12:31:58;;;;;;;36.83;24.30;;;;;;;;;;6147986;28;20235;-66
2021/12/27 12:35:39;;;;;;;36.50;26.57;;;;;;;;;;6151679;28;20234;-64
2021/12/27 12:38:59;;;;;;;36.57;26.07;;;;;;;;;;6141007;28;20238;-66
2021/12/27 12:42:23;;;;;;;40.77;27.57;;;;;;;;;;6150569;28;21859;-67
2021/12/27 12:45:46;;;;;;;42.80;27.27;;;;;;;;;;6150387;28;20234;-64
2021/12/27 12:49:09;;;;;;;37.03;25.13;;;;;;;;;;6145520;28;20238;-66
2021/12/27 12:52:30;;;;;;;39.97;26.77;;;;;;;;;;6152482;28;20523;-66
2021/12/27 12:55:51;;;;;;;33.97;25.40;;;;;;;;;;6152394;28;20255;-66
2021/12/27 12:59:18;;;;;;;40.50;26.63;;;;;;;;;;6150048;28;20242;-67
2021/12/27 13:02:41;;;;;;;36.73;26.03;;;;;;;;;;6140861;28;20774;-63
2021/12/27 13:06:04;;;;;;;36.17;26.73;;;;;;;;;;6146183;28;20226;-64
2021/12/27 13:09:40;;;;;;;41.37;28.70;;;;;;;;;;6150177;28;20815;-66
2021/12/27 13:13:05;;;;;;;36.60;27.47;;;;;;;;;;6145888;28;20234;-65
2021/12/27 13:16:29;;;;;;;40.10;26.40;;;;;;;;;;6150755;28;20594;-65
2021/12/27 13:20:06;;;;;;;41.53;29.77;;;;;;;;;;6154949;28;20242;-63
2021/12/27 13:23:29;;;;;;;38.50;27.23;;;;;;;;;;6162563;28;20328;-65
2021/12/27 13:26:50;;;;;;;36.30;28.50;;;;;;;;;;6157353;28;20321;-64
2021/12/27 13:30:14;;;;;;;39.20;26.87;;;;;;;;;;6151401;28;20590;-65
2021/12/27 13:33:42;;;;;;;38.77;27.50;;;;;;;;;;6149637;28;20693;-64
2021/12/27 13:37:04;;;;;;;40.73;28.37;;;;;;;;;;6153901;28;20272;-63
2021/12/27 13:40:25;;;;;;;37.17;27.50;;;;;;;;;;6148396;28;20257;-62
2021/12/27 13:43:49;;;;;;;40.47;28.47;;;;;;;;;;6156605;28;20234;-65
2021/12/27 13:47:12;;;;;;;42.13;29.73;;;;;;;;;;6154995;28;20227;-63
2021/12/27 13:50:33;;;;;;;38.87;26.70;;;;;;;;;;6152025;28;20231;-64
2021/12/27 13:54:00;;;;;;;35.53;25.27;;;;;;;;;;6155050;28;20234;-64
2021/12/27 13:57:31;;;;;;;35.27;26.50;;;;;;;;;;6152527;28;20234;-64
2021/12/27 14:00:54;;;;;;;40.37;27.37;;;;;;;;;;6145621;28;20320;-64
2021/12/27 14:04:17;;;;;;;35.63;27.23;;;;;;;;;;6151541;28;20251;-64
2021/12/27 14:07:39;;;;;;;40.60;27.40;;;;;;;;;;6142227;28;20235;-64
2021/12/27 14:11:12;;;;;;;35.67;26.07;;;;;;;;;;6130609;28;20234;-63
2021/12/27 14:14:36;;;;;;;36.03;26.57;;;;;;;;;;6140976;28;20261;-64
2021/12/27 14:18:08;;;;;;;39.53;26.60;;;;;;;;;;6137789;28;20235;-63
2021/12/27 14:21:29;;;;;;;41.53;29.17;;;;;;;;;;6142532;28;20617;-62
2021/12/27 14:24:55;;;;;;;42.57;30.47;;;;;;;;;;6138581;28;20234;-64
2021/12/27 14:28:17;;;;;;;40.17;28.50;;;;;;;;;;6142362;28;20632;-63
2021/12/27 14:31:37;;;;;;;40.97;27.53;;;;;;;;;;6142992;28;22412;-63
2021/12/27 14:34:58;;;;;;;42.77;30.97;;;;;;;;;;6142821;28;20239;-64
2021/12/27 14:38:22;;;;;;;45.30;29.90;;;;;;;;;;6151296;28;20562;-64
2021/12/27 14:41:43;;;;;;;41.93;29.03;;;;;;;;;;6160742;28;20592;-63
2021/12/27 14:45:07;;;;;;;38.73;28.57;;;;;;;;;;6162173;28;20230;-62
2021/12/27 14:48:27;;;;;;;38.23;28.00;;;;;;;;;;6161624;28;20254;-64
2021/12/27 14:51:48;;;;;;;39.70;28.97;;;;;;;;;;6161311;28;20259;-63
2021/12/27 14:55:10;;;;;;;39.07;29.10;;;;;;;;;;6158190;28;20652;-64
2021/12/27 14:58:31;;;;;;;37.47;29.03;;;;;;;;;;6158742;28;20230;-64
2021/12/27 15:01:53;;;;;;;38.77;28.70;;;;;;;;;;6148773;28;20243;-64
2021/12/27 15:05:14;;;;;;;42.30;29.43;;;;;;;;;;6156056;28;20254;-64
2021/12/27 15:08:35;;;;;;;40.13;30.33;;;;;;;;;;6152722;28;20238;-63
2021/12/27 15:11:56;;;;;;;40.63;28.63;;;;;;;;;;6154958;28;20234;-64
2021/12/27 15:15:20;;;;;;;38.53;30.40;;;;;;;;;;6145267;28;20227;-65
2021/12/27 15:18:42;;;;;;;37.50;26.27;;;;;;;;;;6146388;28;21822;-63
2021/12/27 15:22:04;;;;;;;41.90;29.57;;;;;;;;;;6149012;28;20238;-64
2021/12/27 15:25:25;;;;;;;39.53;27.73;;;;;;;;;;6159110;28;20242;-64
2021/12/27 15:28:48;;;;;;;40.50;32.07;;;;;;;;;;6152421;28;20231;-63
2021/12/27 15:32:09;;;;;;;40.53;29.90;;;;;;;;;;6153445;28;20763;-64
2021/12/27 15:35:32;;;;;;;34.73;27.43;;;;;;;;;;6158178;28;20226;-64
2021/12/27 15:38:53;;;;;;;40.50;28.20;;;;;;;;;;6160912;28;20262;-63
2021/12/27 15:42:14;;;;;;;42.27;31.07;;;;;;;;;;6154719;28;20235;-64
2021/12/27 15:45:35;;;;;;;39.63;30.80;;;;;;;;;;6157948;28;20239;-63
2021/12/27 15:48:56;;;;;;;43.93;30.67;;;;;;;;;;6158908;28;20242;-64
2021/12/27 15:52:19;;;;;;;41.70;30.47;;;;;;;;;;6153385;28;20553;-65
2021/12/27 15:55:40;;;;;;;46.07;33.43;;;;;;;;;;6154790;28;20235;-63
2021/12/27 15:59:01;;;;;;;37.90;27.00;;;;;;;;;;6151597;28;20237;-64
2021/12/27 16:02:22;;;;;;;39.53;29.77;;;;;;;;;;6149786;28;20676;-64
2021/12/27 16:05:43;;;;;;;43.43;30.70;;;;;;;;;;6152819;28;20234;-65
2021/12/27 16:09:05;;;;;;;38.17;28.83;;;;;;;;;;6157846;28;20253;-64
2021/12/27 16:12:26;;;;;;;38.30;28.43;;;;;;;;;;6152154;28;20239;-64
2021/12/27 16:15:46;;;;;;;36.67;29.53;;;;;;;;;;6154144;28;20448;-64
2021/12/27 16:19:07;;;;;;;38.97;28.83;;;;;;;;;;6154021;28;20239;-64
2021/12/27 16:22:28;;;;;;;39.83;28.70;;;;;;;;;;6159514;28;20238;-64
2021/12/27 16:25:50;;;;;;;42.23;30.53;;;;;;;;;;6151450;28;20230;-63
2021/12/27 16:29:11;;;;;;;41.23;29.40;;;;;;;;;;6157319;28;20222;-63
2021/12/27 16:32:33;;;;;;;37.30;27.87;;;;;;;;;;6151322;28;20219;-63
2021/12/27 16:35:56;;;;;;;40.23;28.57;;;;;;;;;;6151005;28;20254;-64
2021/12/27 16:39:17;;;;;;;40.77;29.97;;;;;;;;;;6151742;28;20230;-65
2021/12/27 16:42:40;;;;;;;40.77;27.67;;;;;;;;;;6155629;28;20484;-64
2021/12/27 16:46:01;;;;;;;38.87;30.27;;;;;;;;;;6152340;28;20628;-65
2021/12/27 16:49:21;;;;;;;38.87;30.07;;;;;;;;;;6149314;28;20596;-65
2021/12/27 16:52:43;;;;;;;44.17;31.73;;;;;;;;;;6158807;28;20242;-64
2021/12/27 16:56:04;;;;;;;37.50;29.20;;;;;;;;;;6155415;28;20238;-65
2021/12/27 16:59:26;;;;;;;49.33;35.30;;;;;;;;;;6150545;28;20234;-66
2021/12/27 17:02:48;;;;;;;36.83;28.57;;;;;;;;;;6149664;28;20302;-65
2021/12/27 17:06:09;;;;;;;41.43;29.90;;;;;;;;;;6145634;28;20258;-65
2021/12/27 17:09:29;;;;;;;35.57;28.83;;;;;;;;;;6147913;28;20246;-65
2021/12/27 17:12:56;;;;;;;35.87;28.87;;;;;;;;;;6154770;28;20415;-66
2021/12/27 17:16:21;;;;;;;40.27;27.90;;;;;;;;;;6152862;28;20397;-64
2021/12/27 17:19:41;;;;;;;37.03;27.63;;;;;;;;;;6150924;28;20238;-66
2021/12/27 17:23:03;;;;;;;38.13;27.43;;;;;;;;;;6150130;28;20492;-65
2021/12/27 17:26:24;;;;;;;35.90;27.27;;;;;;;;;;6144182;28;20310;-65
2021/12/27 17:29:45;;;;;;;44.23;29.50;;;;;;;;;;6157549;28;20234;-65
2021/12/27 17:33:07;;;;;;;41.37;30.60;;;;;;;;;;6155825;28;20222;-65
2021/12/27 17:36:28;;;;;;;40.73;29.87;;;;;;;;;;6161773;28;20319;-64
2021/12/27 17:39:49;;;;;;;40.03;29.77;;;;;;;;;;6157780;28;20318;-66
2021/12/27 17:43:10;;;;;;;34.03;26.93;;;;;;;;;;6148393;28;20262;-65
2021/12/27 17:46:31;;;;;;;42.97;30.53;;;;;;;;;;6145439;28;20231;-65
2021/12/27 17:49:54;;;;;;;33.60;27.00;;;;;;;;;;6156046;28;20321;-65
2021/12/27 17:53:15;;;;;;;40.97;28.83;;;;;;;;;;6148735;28;20222;-66
2021/12/27 17:56:37;;;;;;;39.97;29.13;;;;;;;;;;6154502;28;20250;-66
2021/12/27 17:59:58;;;;;;;37.80;30.93;;;;;;;;;;6157594;28;20526;-65
2021/12/27 18:03:19;;;;;;;44.77;34.53;;;;;;;;;;6147467;28;20536;-65
2021/12/27 18:06:42;;;;;;;38.27;28.87;;;;;;;;;;6151673;28;20242;-65
2021/12/27 18:10:03;;;;;;;37.03;28.70;;;;;;;;;;6156150;28;20532;-65
2021/12/27 18:13:26;;;;;;;38.43;27.80;;;;;;;;;;6153729;28;20239;-65
2021/12/27 18:16:47;;;;;;;37.83;28.97;;;;;;;;;;6152109;28;20231;-65
2021/12/27 18:20:09;;;;;;;38.37;28.20;;;;;;;;;;6156099;28;20304;-66
2021/12/27 18:23:32;;;;;;;36.33;29.63;;;;;;;;;;6157113;28;20726;-65
2021/12/27 18:26:53;;;;;;;34.20;26.27;;;;;;;;;;6152387;28;20318;-65
2021/12/27 18:30:20;;;;;;;39.73;29.40;;;;;;;;;;6154441;28;20735;-66
2021/12/27 18:33:41;;;;;;;46.30;30.47;;;;;;;;;;6152993;28;20254;-66
2021/12/27 18:37:02;;;;;;;35.00;28.30;;;;;;;;;;6154946;28;21746;-67
2021/12/27 18:40:27;;;;;;;40.53;29.20;;;;;;;;;;6146744;28;21662;-65
2021/12/27 18:43:48;;;;;;;41.27;27.23;;;;;;;;;;6144815;28;20218;-65
2021/12/27 18:47:09;;;;;;;34.83;26.13;;;;;;;;;;6150764;28;20223;-66
2021/12/27 18:50:31;;;;;;;41.47;30.23;;;;;;;;;;6151578;28;20239;-66
2021/12/27 18:53:52;;;;;;;34.20;26.23;;;;;;;;;;6152082;28;20245;-65
2021/12/27 18:57:14;;;;;;;35.10;26.93;;;;;;;;;;6148173;28;20235;-64
2021/12/27 19:00:36;;;;;;;37.87;25.83;;;;;;;;;;6146564;28;20235;-64
2021/12/27 19:03:58;;;;;;;32.63;25.53;;;;;;;;;;6147270;28;20632;-64
2021/12/27 19:07:19;;;;;;;33.33;25.93;;;;;;;;;;6147738;28;20230;-65
2021/12/27 19:10:40;;;;;;;34.97;25.70;;;;;;;;;;6148676;28;20235;-65
2021/12/27 19:14:02;;;;;;;34.30;23.50;;;;;;;;;;6157035;28;20239;-66
2021/12/27 19:17:24;;;;;;;38.27;26.87;;;;;;;;;;6152009;28;20231;-66
2021/12/27 19:20:45;;;;;;;33.63;25.50;;;;;;;;;;6154922;28;20231;-66
2021/12/27 19:24:06;;;;;;;34.90;27.87;;;;;;;;;;6153056;28;20674;-65
2021/12/27 19:27:26;;;;;;;36.77;26.37;;;;;;;;;;6155554;28;20247;-68
2021/12/27 19:30:49;;;;;;;33.87;26.07;;;;;;;;;;6156845;28;20231;-66
2021/12/27 19:34:09;;;;;;;34.67;25.67;;;;;;;;;;6152375;28;20270;-66
2021/12/27 19:37:30;;;;;;;31.07;24.90;;;;;;;;;;6159291;28;20246;-66
2021/12/27 19:40:52;;;;;;;32.13;24.73;;;;;;;;;;6154317;28;21910;-67